sensor_id;sensor_type;location;lat;lon;timestamp;P1;durP1;ratioP1;P2;durP2;ratioP2
15899;SDS011;8048;50.644;6.184;2022-07-23T00:00:13;8.90;;;8.00;;
15899;SDS011;8048;50.644;6.184;2022-07-23T00:02:40;8.00;;;7.30;;
15899;SDS011;8048;50.644;6.184;2022-07-23T00:05:05;7.87;;;6.83;;
15899;SDS011;8048;50.644;6.184;2022-07-23T00:07:31;8.30;;;7.40;;
15899;SDS011;8048;50.644;6.184;2022-07-23T00:09:57;5.67;;;5.23;;
15899;SDS011;8048;50.644;6.184;2022-07-23T00:12:22;14.00;;;8.87;;
15899;SDS011;8048;50.644;6.184;2022-07-23T00:14:48;6.60;;;6.10;;
15899;SDS011;8048;50.644;6.184;2022-07-23T00:17:14;9.77;;;7.10;;
15899;SDS011;8048;50.644;6.184;2022-07-23T00:19:39;11.13;;;9.60;;
15899;SDS011;8048;50.644;6.184;2022-07-23T00:22:05;10.00;;;7.83;;
15899;SDS011;8048;50.644;6.184;2022-07-23T00:24:30;7.70;;;6.87;;
15899;SDS011;8048;50.644;6.184;2022-07-23T00:26:56;8.07;;;7.30;;
15899;SDS011;8048;50.644;6.184;2022-07-23T00:29:21;8.33;;;7.53;;
15899;SDS011;8048;50.644;6.184;2022-07-23T00:31:47;7.30;;;6.43;;
15899;SDS011;8048;50.644;6.184;2022-07-23T00:34:12;7.80;;;7.10;;
15899;SDS011;8048;50.644;6.184;2022-07-23T00:36:38;16.13;;;9.80;;
15899;SDS011;8048;50.644;6.184;2022-07-23T00:39:04;11.57;;;9.53;;
15899;SDS011;8048;50.644;6.184;2022-07-23T00:41:30;6.80;;;6.10;;
15899;SDS011;8048;50.644;6.184;2022-07-23T00:43:56;8.17;;;6.80;;
15899;SDS011;8048;50.644;6.184;2022-07-23T00:46:56;11.17;;;10.07;;
15899;SDS011;8048;50.644;6.184;2022-07-23T00:49:23;12.80;;;11.03;;
15899;SDS011;8048;50.644;6.184;2022-07-23T00:51:50;6.83;;;6.23;;
15899;SDS011;8048;50.644;6.184;2022-07-23T00:54:16;10.33;;;9.03;;
15899;SDS011;8048;50.644;6.184;2022-07-23T00:56:44;7.90;;;7.20;;
15899;SDS011;8048;50.644;6.184;2022-07-23T00:59:10;9.30;;;8.40;;
15899;SDS011;8048;50.644;6.184;2022-07-23T01:01:35;7.27;;;6.60;;
15899;SDS011;8048;50.644;6.184;2022-07-23T01:04:01;6.60;;;6.00;;
15899;SDS011;8048;50.644;6.184;2022-07-23T01:06:27;10.33;;;9.17;;
15899;SDS011;8048;50.644;6.184;2022-07-23T01:08:56;15.23;;;11.40;;
15899;SDS011;8048;50.644;6.184;2022-07-23T01:11:22;11.73;;;9.40;;
15899;SDS011;8048;50.644;6.184;2022-07-23T01:13:49;8.37;;;7.60;;
15899;SDS011;8048;50.644;6.184;2022-07-23T01:16:15;6.87;;;6.23;;
15899;SDS011;8048;50.644;6.184;2022-07-23T01:18:40;7.97;;;6.67;;
15899;SDS011;8048;50.644;6.184;2022-07-23T01:21:06;6.50;;;5.90;;
15899;SDS011;8048;50.644;6.184;2022-07-23T01:23:34;7.83;;;7.03;;
15899;SDS011;8048;50.644;6.184;2022-07-23T01:25:59;9.43;;;8.53;;
15899;SDS011;8048;50.644;6.184;2022-07-23T01:28:25;11.70;;;10.50;;
15899;SDS011;8048;50.644;6.184;2022-07-23T01:30:50;6.63;;;6.03;;
15899;SDS011;8048;50.644;6.184;2022-07-23T01:33:16;8.40;;;7.43;;
15899;SDS011;8048;50.644;6.184;2022-07-23T01:35:41;8.80;;;7.97;;
15899;SDS011;8048;50.644;6.184;2022-07-23T01:38:07;9.43;;;8.57;;
15899;SDS011;8048;50.644;6.184;2022-07-23T01:40:32;8.40;;;6.73;;
15899;SDS011;8048;50.644;6.184;2022-07-23T01:42:58;6.53;;;5.90;;
15899;SDS011;8048;50.644;6.184;2022-07-23T01:45:23;6.90;;;6.30;;
15899;SDS011;8048;50.644;6.184;2022-07-23T01:47:49;6.83;;;6.33;;
15899;SDS011;8048;50.644;6.184;2022-07-23T01:50:14;9.37;;;7.20;;
15899;SDS011;8048;50.644;6.184;2022-07-23T01:52:40;7.87;;;7.07;;
15899;SDS011;8048;50.644;6.184;2022-07-23T01:55:06;6.93;;;6.17;;
15899;SDS011;8048;50.644;6.184;2022-07-23T01:57:32;8.30;;;7.50;;
15899;SDS011;8048;50.644;6.184;2022-07-23T01:59:58;8.13;;;7.30;;
15899;SDS011;8048;50.644;6.184;2022-07-23T02:02:24;13.37;;;12.10;;
15899;SDS011;8048;50.644;6.184;2022-07-23T02:04:50;8.53;;;7.33;;
15899;SDS011;8048;50.644;6.184;2022-07-23T02:07:15;7.67;;;6.90;;
15899;SDS011;8048;50.644;6.184;2022-07-23T02:09:41;8.30;;;6.80;;
15899;SDS011;8048;50.644;6.184;2022-07-23T02:12:06;6.60;;;6.10;;
15899;SDS011;8048;50.644;6.184;2022-07-23T02:14:32;7.23;;;6.60;;
15899;SDS011;8048;50.644;6.184;2022-07-23T02:16:58;13.70;;;8.87;;
15899;SDS011;8048;50.644;6.184;2022-07-23T02:19:24;8.27;;;7.57;;
15899;SDS011;8048;50.644;6.184;2022-07-23T02:21:49;7.77;;;6.90;;
15899;SDS011;8048;50.644;6.184;2022-07-23T02:24:15;7.60;;;6.90;;
15899;SDS011;8048;50.644;6.184;2022-07-23T02:26:41;7.40;;;6.70;;
15899;SDS011;8048;50.644;6.184;2022-07-23T02:29:07;7.20;;;6.60;;
15899;SDS011;8048;50.644;6.184;2022-07-23T02:31:32;6.77;;;6.10;;
15899;SDS011;8048;50.644;6.184;2022-07-23T02:33:58;7.77;;;7.07;;
15899;SDS011;8048;50.644;6.184;2022-07-23T02:36:24;10.43;;;9.30;;
15899;SDS011;8048;50.644;6.184;2022-07-23T02:38:50;8.10;;;7.30;;
15899;SDS011;8048;50.644;6.184;2022-07-23T02:41:16;8.30;;;7.57;;
15899;SDS011;8048;50.644;6.184;2022-07-23T02:43:41;6.90;;;6.30;;
15899;SDS011;8048;50.644;6.184;2022-07-23T02:46:07;8.93;;;7.90;;
15899;SDS011;8048;50.644;6.184;2022-07-23T02:48:32;9.90;;;8.40;;
15899;SDS011;8048;50.644;6.184;2022-07-23T02:50:58;7.50;;;6.90;;
15899;SDS011;8048;50.644;6.184;2022-07-23T02:53:24;9.47;;;8.50;;
15899;SDS011;8048;50.644;6.184;2022-07-23T02:55:49;7.60;;;6.90;;
15899;SDS011;8048;50.644;6.184;2022-07-23T02:58:15;6.90;;;6.20;;
15899;SDS011;8048;50.644;6.184;2022-07-23T03:00:41;7.00;;;6.40;;
15899;SDS011;8048;50.644;6.184;2022-07-23T03:03:06;7.30;;;6.67;;
15899;SDS011;8048;50.644;6.184;2022-07-23T03:05:33;10.37;;;9.47;;
15899;SDS011;8048;50.644;6.184;2022-07-23T03:07:59;10.03;;;7.00;;
15899;SDS011;8048;50.644;6.184;2022-07-23T03:10:24;7.10;;;6.40;;
15899;SDS011;8048;50.644;6.184;2022-07-23T03:12:50;9.20;;;7.50;;
15899;SDS011;8048;50.644;6.184;2022-07-23T03:15:16;6.60;;;6.10;;
15899;SDS011;8048;50.644;6.184;2022-07-23T03:17:41;7.23;;;6.53;;
15899;SDS011;8048;50.644;6.184;2022-07-23T03:20:07;7.70;;;7.00;;
15899;SDS011;8048;50.644;6.184;2022-07-23T03:22:33;11.10;;;10.03;;
15899;SDS011;8048;50.644;6.184;2022-07-23T03:24:58;9.07;;;8.30;;
15899;SDS011;8048;50.644;6.184;2022-07-23T03:27:25;8.03;;;7.23;;
15899;SDS011;8048;50.644;6.184;2022-07-23T03:29:53;8.57;;;7.70;;
15899;SDS011;8048;50.644;6.184;2022-07-23T03:32:20;8.87;;;7.97;;
15899;SDS011;8048;50.644;6.184;2022-07-23T03:34:46;7.60;;;6.60;;
15899;SDS011;8048;50.644;6.184;2022-07-23T03:37:12;7.33;;;6.57;;
15899;SDS011;8048;50.644;6.184;2022-07-23T03:39:37;7.40;;;6.80;;
15899;SDS011;8048;50.644;6.184;2022-07-23T03:42:03;7.10;;;6.40;;
15899;SDS011;8048;50.644;6.184;2022-07-23T03:44:29;7.47;;;6.77;;
15899;SDS011;8048;50.644;6.184;2022-07-23T03:46:54;8.40;;;7.67;;
15899;SDS011;8048;50.644;6.184;2022-07-23T03:49:20;8.10;;;7.30;;
15899;SDS011;8048;50.644;6.184;2022-07-23T03:51:46;7.83;;;7.07;;
15899;SDS011;8048;50.644;6.184;2022-07-23T03:54:11;8.57;;;7.77;;
15899;SDS011;8048;50.644;6.184;2022-07-23T03:56:37;7.97;;;7.10;;
15899;SDS011;8048;50.644;6.184;2022-07-23T03:59:03;6.47;;;5.70;;
15899;SDS011;8048;50.644;6.184;2022-07-23T04:01:28;8.00;;;7.23;;
15899;SDS011;8048;50.644;6.184;2022-07-23T04:03:54;7.60;;;6.93;;
15899;SDS011;8048;50.644;6.184;2022-07-23T04:06:19;6.50;;;5.93;;
15899;SDS011;8048;50.644;6.184;2022-07-23T04:08:45;9.57;;;8.67;;
15899;SDS011;8048;50.644;6.184;2022-07-23T04:11:11;9.73;;;8.73;;
15899;SDS011;8048;50.644;6.184;2022-07-23T04:13:36;8.67;;;7.90;;
15899;SDS011;8048;50.644;6.184;2022-07-23T04:16:02;7.03;;;6.33;;
15899;SDS011;8048;50.644;6.184;2022-07-23T04:18:28;6.20;;;5.63;;
15899;SDS011;8048;50.644;6.184;2022-07-23T04:20:54;8.00;;;7.20;;
15899;SDS011;8048;50.644;6.184;2022-07-23T04:23:20;7.77;;;7.03;;
15899;SDS011;8048;50.644;6.184;2022-07-23T04:25:45;11.10;;;8.70;;
15899;SDS011;8048;50.644;6.184;2022-07-23T04:28:11;7.30;;;6.53;;
15899;SDS011;8048;50.644;6.184;2022-07-23T04:30:36;7.50;;;6.63;;
15899;SDS011;8048;50.644;6.184;2022-07-23T04:33:02;7.80;;;7.10;;
15899;SDS011;8048;50.644;6.184;2022-07-23T04:35:31;7.93;;;7.23;;
15899;SDS011;8048;50.644;6.184;2022-07-23T04:37:58;8.00;;;7.20;;
15899;SDS011;8048;50.644;6.184;2022-07-23T04:40:24;9.53;;;7.97;;
15899;SDS011;8048;50.644;6.184;2022-07-23T04:42:50;7.20;;;6.60;;
15899;SDS011;8048;50.644;6.184;2022-07-23T04:45:15;8.00;;;7.30;;
15899;SDS011;8048;50.644;6.184;2022-07-23T04:47:41;8.43;;;7.50;;
15899;SDS011;8048;50.644;6.184;2022-07-23T04:50:06;7.40;;;6.67;;
15899;SDS011;8048;50.644;6.184;2022-07-23T04:52:32;7.20;;;6.40;;
15899;SDS011;8048;50.644;6.184;2022-07-23T04:54:58;8.20;;;7.37;;
15899;SDS011;8048;50.644;6.184;2022-07-23T04:57:23;10.73;;;7.50;;
15899;SDS011;8048;50.644;6.184;2022-07-23T04:59:49;6.40;;;5.80;;
15899;SDS011;8048;50.644;6.184;2022-07-23T05:02:14;7.90;;;7.20;;
15899;SDS011;8048;50.644;6.184;2022-07-23T05:04:40;7.30;;;6.70;;
15899;SDS011;8048;50.644;6.184;2022-07-23T05:07:06;7.80;;;7.00;;
15899;SDS011;8048;50.644;6.184;2022-07-23T05:09:31;6.63;;;6.13;;
15899;SDS011;8048;50.644;6.184;2022-07-23T05:11:57;6.97;;;6.47;;
15899;SDS011;8048;50.644;6.184;2022-07-23T05:14:22;7.07;;;6.47;;
15899;SDS011;8048;50.644;6.184;2022-07-23T05:16:48;8.20;;;7.40;;
15899;SDS011;8048;50.644;6.184;2022-07-23T05:19:14;9.27;;;7.20;;
15899;SDS011;8048;50.644;6.184;2022-07-23T05:21:39;7.87;;;7.03;;
15899;SDS011;8048;50.644;6.184;2022-07-23T05:24:05;8.00;;;7.20;;
15899;SDS011;8048;50.644;6.184;2022-07-23T05:26:31;7.73;;;7.10;;
15899;SDS011;8048;50.644;6.184;2022-07-23T05:28:56;7.47;;;6.90;;
15899;SDS011;8048;50.644;6.184;2022-07-23T05:31:22;7.63;;;6.97;;
15899;SDS011;8048;50.644;6.184;2022-07-23T05:33:47;6.83;;;6.30;;
15899;SDS011;8048;50.644;6.184;2022-07-23T05:36:13;8.00;;;7.40;;
15899;SDS011;8048;50.644;6.184;2022-07-23T05:38:39;7.13;;;6.43;;
15899;SDS011;8048;50.644;6.184;2022-07-23T05:41:04;7.33;;;6.73;;
15899;SDS011;8048;50.644;6.184;2022-07-23T05:43:30;6.73;;;6.13;;
15899;SDS011;8048;50.644;6.184;2022-07-23T05:45:55;6.20;;;5.70;;
15899;SDS011;8048;50.644;6.184;2022-07-23T05:48:21;8.23;;;7.43;;
15899;SDS011;8048;50.644;6.184;2022-07-23T05:50:47;6.87;;;6.23;;
15899;SDS011;8048;50.644;6.184;2022-07-23T05:53:13;8.90;;;8.00;;
15899;SDS011;8048;50.644;6.184;2022-07-23T05:55:38;6.57;;;5.87;;
15899;SDS011;8048;50.644;6.184;2022-07-23T05:58:04;6.90;;;6.30;;
15899;SDS011;8048;50.644;6.184;2022-07-23T06:00:29;7.30;;;6.70;;
15899;SDS011;8048;50.644;6.184;2022-07-23T06:02:56;6.97;;;6.40;;
15899;SDS011;8048;50.644;6.184;2022-07-23T06:05:21;6.73;;;6.13;;
15899;SDS011;8048;50.644;6.184;2022-07-23T06:07:47;7.07;;;6.47;;
15899;SDS011;8048;50.644;6.184;2022-07-23T06:10:13;6.50;;;5.97;;
15899;SDS011;8048;50.644;6.184;2022-07-23T06:12:38;8.33;;;7.53;;
15899;SDS011;8048;50.644;6.184;2022-07-23T06:15:04;8.77;;;7.80;;
15899;SDS011;8048;50.644;6.184;2022-07-23T06:17:30;6.33;;;5.83;;
15899;SDS011;8048;50.644;6.184;2022-07-23T06:19:56;9.60;;;8.67;;
15899;SDS011;8048;50.644;6.184;2022-07-23T06:22:22;7.13;;;6.53;;
15899;SDS011;8048;50.644;6.184;2022-07-23T06:24:48;6.63;;;6.03;;
15899;SDS011;8048;50.644;6.184;2022-07-23T06:27:14;7.23;;;6.67;;
15899;SDS011;8048;50.644;6.184;2022-07-23T06:29:40;5.93;;;5.30;;
15899;SDS011;8048;50.644;6.184;2022-07-23T06:32:06;5.93;;;5.53;;
15899;SDS011;8048;50.644;6.184;2022-07-23T06:34:32;6.10;;;5.60;;
15899;SDS011;8048;50.644;6.184;2022-07-23T06:36:58;7.70;;;7.00;;
15899;SDS011;8048;50.644;6.184;2022-07-23T06:39:24;6.70;;;6.10;;
15899;SDS011;8048;50.644;6.184;2022-07-23T06:41:49;6.93;;;6.27;;
15899;SDS011;8048;50.644;6.184;2022-07-23T06:44:15;7.23;;;6.53;;
15899;SDS011;8048;50.644;6.184;2022-07-23T06:46:40;8.60;;;7.80;;
15899;SDS011;8048;50.644;6.184;2022-07-23T06:49:06;7.53;;;6.93;;
15899;SDS011;8048;50.644;6.184;2022-07-23T06:51:32;6.03;;;5.53;;
15899;SDS011;8048;50.644;6.184;2022-07-23T06:53:57;6.77;;;6.13;;
15899;SDS011;8048;50.644;6.184;2022-07-23T06:56:23;5.37;;;4.87;;
15899;SDS011;8048;50.644;6.184;2022-07-23T06:58:49;6.70;;;6.07;;
15899;SDS011;8048;50.644;6.184;2022-07-23T07:01:14;5.37;;;4.87;;
15899;SDS011;8048;50.644;6.184;2022-07-23T07:03:40;5.83;;;5.33;;
15899;SDS011;8048;50.644;6.184;2022-07-23T07:06:05;6.63;;;6.17;;
15899;SDS011;8048;50.644;6.184;2022-07-23T07:08:31;5.97;;;5.50;;
15899;SDS011;8048;50.644;6.184;2022-07-23T07:10:57;5.77;;;5.27;;
15899;SDS011;8048;50.644;6.184;2022-07-23T07:13:22;5.23;;;4.83;;
15899;SDS011;8048;50.644;6.184;2022-07-23T07:15:48;6.07;;;5.57;;
15899;SDS011;8048;50.644;6.184;2022-07-23T07:18:13;6.80;;;6.10;;
15899;SDS011;8048;50.644;6.184;2022-07-23T07:20:39;5.97;;;5.47;;
15899;SDS011;8048;50.644;6.184;2022-07-23T07:23:04;6.43;;;5.93;;
15899;SDS011;8048;50.644;6.184;2022-07-23T07:25:30;6.50;;;5.23;;
15899;SDS011;8048;50.644;6.184;2022-07-23T07:27:55;6.60;;;6.00;;
15899;SDS011;8048;50.644;6.184;2022-07-23T07:30:21;7.03;;;6.43;;
15899;SDS011;8048;50.644;6.184;2022-07-23T07:32:47;6.13;;;5.30;;
15899;SDS011;8048;50.644;6.184;2022-07-23T07:35:12;5.33;;;4.87;;
15899;SDS011;8048;50.644;6.184;2022-07-23T07:37:38;7.00;;;6.10;;
15899;SDS011;8048;50.644;6.184;2022-07-23T07:40:03;6.53;;;5.93;;
15899;SDS011;8048;50.644;6.184;2022-07-23T07:42:29;5.20;;;4.50;;
15899;SDS011;8048;50.644;6.184;2022-07-23T07:44:57;5.43;;;5.00;;
15899;SDS011;8048;50.644;6.184;2022-07-23T07:47:22;6.40;;;5.90;;
15899;SDS011;8048;50.644;6.184;2022-07-23T07:49:48;6.37;;;5.87;;
15899;SDS011;8048;50.644;6.184;2022-07-23T07:52:13;7.30;;;6.60;;
15899;SDS011;8048;50.644;6.184;2022-07-23T07:54:39;7.47;;;6.20;;
15899;SDS011;8048;50.644;6.184;2022-07-23T07:57:07;6.37;;;5.13;;
15899;SDS011;8048;50.644;6.184;2022-07-23T07:59:33;6.20;;;5.60;;
15899;SDS011;8048;50.644;6.184;2022-07-23T08:01:59;5.50;;;5.00;;
15899;SDS011;8048;50.644;6.184;2022-07-23T08:04:24;7.23;;;5.57;;
15899;SDS011;8048;50.644;6.184;2022-07-23T08:06:50;5.47;;;5.03;;
15899;SDS011;8048;50.644;6.184;2022-07-23T08:09:16;6.50;;;5.90;;
15899;SDS011;8048;50.644;6.184;2022-07-23T08:11:41;6.97;;;6.40;;
15899;SDS011;8048;50.644;6.184;2022-07-23T08:14:07;7.10;;;6.43;;
15899;SDS011;8048;50.644;6.184;2022-07-23T08:16:32;6.20;;;5.60;;
15899;SDS011;8048;50.644;6.184;2022-07-23T08:18:58;6.57;;;5.90;;
15899;SDS011;8048;50.644;6.184;2022-07-23T08:21:23;7.37;;;6.60;;
15899;SDS011;8048;50.644;6.184;2022-07-23T08:23:49;6.47;;;5.87;;
15899;SDS011;8048;50.644;6.184;2022-07-23T08:26:14;8.80;;;5.80;;
15899;SDS011;8048;50.644;6.184;2022-07-23T08:28:40;6.53;;;5.33;;
15899;SDS011;8048;50.644;6.184;2022-07-23T08:31:06;8.17;;;7.20;;
15899;SDS011;8048;50.644;6.184;2022-07-23T08:33:31;5.87;;;5.37;;
15899;SDS011;8048;50.644;6.184;2022-07-23T08:35:57;6.30;;;5.70;;
15899;SDS011;8048;50.644;6.184;2022-07-23T08:38:23;5.87;;;5.33;;
15899;SDS011;8048;50.644;6.184;2022-07-23T08:40:51;5.37;;;4.97;;
15899;SDS011;8048;50.644;6.184;2022-07-23T08:43:23;6.03;;;5.53;;
15899;SDS011;8048;50.644;6.184;2022-07-23T08:45:50;4.60;;;4.20;;
15899;SDS011;8048;50.644;6.184;2022-07-23T08:48:22;4.57;;;4.23;;
15899;SDS011;8048;50.644;6.184;2022-07-23T08:50:49;4.43;;;4.03;;
15899;SDS011;8048;50.644;6.184;2022-07-23T08:53:20;6.73;;;6.03;;
15899;SDS011;8048;50.644;6.184;2022-07-23T08:55:47;5.20;;;4.80;;
15899;SDS011;8048;50.644;6.184;2022-07-23T08:58:14;7.23;;;6.23;;
15899;SDS011;8048;50.644;6.184;2022-07-23T09:00:42;6.10;;;5.30;;
15899;SDS011;8048;50.644;6.184;2022-07-23T09:03:13;4.80;;;4.40;;
15899;SDS011;8048;50.644;6.184;2022-07-23T09:05:41;5.07;;;4.67;;
15899;SDS011;8048;50.644;6.184;2022-07-23T09:08:07;5.17;;;4.40;;
15899;SDS011;8048;50.644;6.184;2022-07-23T09:10:44;4.47;;;4.07;;
15899;SDS011;8048;50.644;6.184;2022-07-23T09:15:50;6.03;;;5.10;;
15899;SDS011;8048;50.644;6.184;2022-07-23T09:18:18;5.43;;;5.00;;
15899;SDS011;8048;50.644;6.184;2022-07-23T09:20:44;4.77;;;4.27;;
15899;SDS011;8048;50.644;6.184;2022-07-23T09:23:10;4.30;;;3.90;;
15899;SDS011;8048;50.644;6.184;2022-07-23T09:25:35;4.80;;;4.23;;
15899;SDS011;8048;50.644;6.184;2022-07-23T09:28:01;4.17;;;3.80;;
15899;SDS011;8048;50.644;6.184;2022-07-23T09:30:30;4.00;;;3.80;;
15899;SDS011;8048;50.644;6.184;2022-07-23T09:33:03;5.20;;;4.70;;
15899;SDS011;8048;50.644;6.184;2022-07-23T09:38:21;4.17;;;3.77;;
15899;SDS011;8048;50.644;6.184;2022-07-23T09:41:07;4.17;;;3.87;;
15899;SDS011;8048;50.644;6.184;2022-07-23T09:43:37;4.40;;;4.00;;
15899;SDS011;8048;50.644;6.184;2022-07-23T09:46:22;5.57;;;5.00;;
15899;SDS011;8048;50.644;6.184;2022-07-23T09:48:50;3.93;;;3.60;;
15899;SDS011;8048;50.644;6.184;2022-07-23T09:51:17;4.27;;;3.97;;
15899;SDS011;8048;50.644;6.184;2022-07-23T09:53:47;5.03;;;4.60;;
15899;SDS011;8048;50.644;6.184;2022-07-23T09:56:13;5.90;;;5.50;;
15899;SDS011;8048;50.644;6.184;2022-07-23T09:58:40;6.03;;;4.83;;
15899;SDS011;8048;50.644;6.184;2022-07-23T10:01:12;5.47;;;5.07;;
15899;SDS011;8048;50.644;6.184;2022-07-23T10:03:39;6.10;;;5.60;;
15899;SDS011;8048;50.644;6.184;2022-07-23T10:06:05;6.30;;;5.80;;
15899;SDS011;8048;50.644;6.184;2022-07-23T10:08:32;6.27;;;5.67;;
15899;SDS011;8048;50.644;6.184;2022-07-23T10:10:59;4.30;;;4.00;;
15899;SDS011;8048;50.644;6.184;2022-07-23T10:13:26;6.17;;;5.57;;
15899;SDS011;8048;50.644;6.184;2022-07-23T10:16:15;5.97;;;5.50;;
15899;SDS011;8048;50.644;6.184;2022-07-23T10:18:41;6.20;;;5.70;;
15899;SDS011;8048;50.644;6.184;2022-07-23T10:21:07;4.27;;;4.03;;
15899;SDS011;8048;50.644;6.184;2022-07-23T10:23:39;5.13;;;4.83;;
15899;SDS011;8048;50.644;6.184;2022-07-23T10:29:30;5.67;;;5.30;;
15899;SDS011;8048;50.644;6.184;2022-07-23T10:32:38;6.43;;;6.03;;
15899;SDS011;8048;50.644;6.184;2022-07-23T10:37:49;4.63;;;4.40;;
15899;SDS011;8048;50.644;6.184;2022-07-23T10:40:22;4.37;;;4.07;;
15899;SDS011;8048;50.644;6.184;2022-07-23T10:42:49;4.83;;;4.50;;
15899;SDS011;8048;50.644;6.184;2022-07-23T10:50:40;4.10;;;3.90;;
15899;SDS011;8048;50.644;6.184;2022-07-23T10:58:04;3.50;;;3.30;;
15899;SDS011;8048;50.644;6.184;2022-07-23T11:00:31;3.70;;;3.50;;
15899;SDS011;8048;50.644;6.184;2022-07-23T11:02:59;3.30;;;3.10;;
15899;SDS011;8048;50.644;6.184;2022-07-23T11:05:26;3.90;;;3.67;;
15899;SDS011;8048;50.644;6.184;2022-07-23T11:34:32;4.87;;;4.50;;
15899;SDS011;8048;50.644;6.184;2022-07-23T11:36:58;3.90;;;3.70;;
15899;SDS011;8048;50.644;6.184;2022-07-23T11:39:26;4.87;;;4.63;;
15899;SDS011;8048;50.644;6.184;2022-07-23T11:41:53;4.43;;;4.13;;
15899;SDS011;8048;50.644;6.184;2022-07-23T11:44:25;4.00;;;3.80;;
15899;SDS011;8048;50.644;6.184;2022-07-23T11:49:21;4.30;;;4.00;;
15899;SDS011;8048;50.644;6.184;2022-07-23T11:51:47;4.30;;;3.90;;
15899;SDS011;8048;50.644;6.184;2022-07-23T11:54:26;4.13;;;3.83;;
15899;SDS011;8048;50.644;6.184;2022-07-23T11:56:59;3.80;;;3.60;;
15899;SDS011;8048;50.644;6.184;2022-07-23T11:59:32;3.60;;;3.40;;
15899;SDS011;8048;50.644;6.184;2022-07-23T12:02:05;4.30;;;3.90;;
15899;SDS011;8048;50.644;6.184;2022-07-23T12:04:44;4.30;;;4.10;;
15899;SDS011;8048;50.644;6.184;2022-07-23T12:09:52;4.47;;;4.20;;
15899;SDS011;8048;50.644;6.184;2022-07-23T12:12:18;3.77;;;3.57;;
15899;SDS011;8048;50.644;6.184;2022-07-23T12:14:51;3.87;;;3.63;;
15899;SDS011;8048;50.644;6.184;2022-07-23T12:17:17;4.90;;;4.60;;
15899;SDS011;8048;50.644;6.184;2022-07-23T12:19:43;4.00;;;3.67;;
15899;SDS011;8048;50.644;6.184;2022-07-23T12:22:09;4.50;;;4.07;;
15899;SDS011;8048;50.644;6.184;2022-07-23T12:24:57;4.03;;;3.83;;
15899;SDS011;8048;50.644;6.184;2022-07-23T12:27:22;4.63;;;4.40;;
15899;SDS011;8048;50.644;6.184;2022-07-23T12:29:48;5.13;;;4.57;;
15899;SDS011;8048;50.644;6.184;2022-07-23T12:32:18;5.30;;;4.03;;
15899;SDS011;8048;50.644;6.184;2022-07-23T12:34:49;3.20;;;3.10;;
15899;SDS011;8048;50.644;6.184;2022-07-23T12:37:27;4.03;;;3.80;;
15899;SDS011;8048;50.644;6.184;2022-07-23T12:39:53;4.07;;;3.87;;
15899;SDS011;8048;50.644;6.184;2022-07-23T12:42:19;4.43;;;4.03;;
15899;SDS011;8048;50.644;6.184;2022-07-23T12:50:37;3.93;;;3.73;;
15899;SDS011;8048;50.644;6.184;2022-07-23T12:55:28;4.67;;;4.30;;
15899;SDS011;8048;50.644;6.184;2022-07-23T12:58:02;4.50;;;4.20;;
15899;SDS011;8048;50.644;6.184;2022-07-23T13:00:32;3.83;;;3.63;;
15899;SDS011;8048;50.644;6.184;2022-07-23T13:03:24;4.57;;;4.37;;
15899;SDS011;8048;50.644;6.184;2022-07-23T13:05:50;4.30;;;4.10;;
15899;SDS011;8048;50.644;6.184;2022-07-23T13:08:16;4.17;;;3.97;;
15899;SDS011;8048;50.644;6.184;2022-07-23T13:10:41;3.93;;;3.73;;
15899;SDS011;8048;50.644;6.184;2022-07-23T13:13:10;4.57;;;4.27;;
15899;SDS011;8048;50.644;6.184;2022-07-23T13:15:36;3.97;;;3.77;;
15899;SDS011;8048;50.644;6.184;2022-07-23T13:18:01;3.80;;;3.60;;
15899;SDS011;8048;50.644;6.184;2022-07-23T13:20:27;4.67;;;4.37;;
15899;SDS011;8048;50.644;6.184;2022-07-23T13:22:53;4.37;;;4.17;;
15899;SDS011;8048;50.644;6.184;2022-07-23T13:25:18;4.27;;;3.97;;
15899;SDS011;8048;50.644;6.184;2022-07-23T13:27:44;4.00;;;3.80;;
15899;SDS011;8048;50.644;6.184;2022-07-23T13:30:10;4.40;;;4.20;;
15899;SDS011;8048;50.644;6.184;2022-07-23T13:32:36;4.20;;;3.90;;
15899;SDS011;8048;50.644;6.184;2022-07-23T13:35:02;4.40;;;4.20;;
15899;SDS011;8048;50.644;6.184;2022-07-23T13:37:28;3.60;;;3.40;;
15899;SDS011;8048;50.644;6.184;2022-07-23T13:39:54;5.07;;;4.77;;
15899;SDS011;8048;50.644;6.184;2022-07-23T13:42:19;4.77;;;4.37;;
15899;SDS011;8048;50.644;6.184;2022-07-23T13:44:45;4.77;;;4.37;;
15899;SDS011;8048;50.644;6.184;2022-07-23T13:47:10;4.93;;;4.63;;
15899;SDS011;8048;50.644;6.184;2022-07-23T13:49:36;5.30;;;4.90;;
15899;SDS011;8048;50.644;6.184;2022-07-23T13:52:05;5.20;;;4.70;;
15899;SDS011;8048;50.644;6.184;2022-07-23T13:54:31;4.97;;;4.63;;
15899;SDS011;8048;50.644;6.184;2022-07-23T13:56:56;4.20;;;4.00;;
15899;SDS011;8048;50.644;6.184;2022-07-23T13:59:22;4.50;;;4.30;;
15899;SDS011;8048;50.644;6.184;2022-07-23T14:01:48;5.23;;;4.67;;
15899;SDS011;8048;50.644;6.184;2022-07-23T14:04:13;4.33;;;4.13;;
15899;SDS011;8048;50.644;6.184;2022-07-23T14:06:39;5.10;;;4.60;;
15899;SDS011;8048;50.644;6.184;2022-07-23T14:09:05;4.30;;;4.00;;
15899;SDS011;8048;50.644;6.184;2022-07-23T14:11:30;4.73;;;4.43;;
15899;SDS011;8048;50.644;6.184;2022-07-23T14:13:56;4.43;;;4.13;;
15899;SDS011;8048;50.644;6.184;2022-07-23T14:16:23;3.77;;;3.57;;
15899;SDS011;8048;50.644;6.184;2022-07-23T14:18:49;5.00;;;4.70;;
15899;SDS011;8048;50.644;6.184;2022-07-23T14:21:14;4.87;;;4.57;;
15899;SDS011;8048;50.644;6.184;2022-07-23T14:23:40;3.73;;;3.57;;
15899;SDS011;8048;50.644;6.184;2022-07-23T14:26:06;4.20;;;4.00;;
15899;SDS011;8048;50.644;6.184;2022-07-23T14:28:34;4.53;;;4.17;;
15899;SDS011;8048;50.644;6.184;2022-07-23T14:31:00;4.33;;;4.03;;
15899;SDS011;8048;50.644;6.184;2022-07-23T14:33:25;4.57;;;4.27;;
15899;SDS011;8048;50.644;6.184;2022-07-23T14:35:51;4.17;;;3.97;;
15899;SDS011;8048;50.644;6.184;2022-07-23T14:38:17;4.00;;;3.80;;
15899;SDS011;8048;50.644;6.184;2022-07-23T14:40:42;4.17;;;3.97;;
15899;SDS011;8048;50.644;6.184;2022-07-23T14:43:08;4.20;;;3.90;;
15899;SDS011;8048;50.644;6.184;2022-07-23T14:45:34;4.30;;;3.90;;
15899;SDS011;8048;50.644;6.184;2022-07-23T14:47:59;3.90;;;3.70;;
15899;SDS011;8048;50.644;6.184;2022-07-23T14:50:27;4.13;;;3.83;;
15899;SDS011;8048;50.644;6.184;2022-07-23T14:52:53;3.80;;;3.60;;
15899;SDS011;8048;50.644;6.184;2022-07-23T14:55:19;4.40;;;4.20;;
15899;SDS011;8048;50.644;6.184;2022-07-23T14:57:45;4.60;;;4.20;;
15899;SDS011;8048;50.644;6.184;2022-07-23T15:00:11;4.10;;;3.80;;
15899;SDS011;8048;50.644;6.184;2022-07-23T15:02:37;4.87;;;4.60;;
15899;SDS011;8048;50.644;6.184;2022-07-23T15:05:03;5.40;;;5.00;;
15899;SDS011;8048;50.644;6.184;2022-07-23T15:07:29;4.40;;;4.20;;
15899;SDS011;8048;50.644;6.184;2022-07-23T15:09:55;5.87;;;5.40;;
15899;SDS011;8048;50.644;6.184;2022-07-23T15:12:21;4.10;;;3.90;;
15899;SDS011;8048;50.644;6.184;2022-07-23T15:14:47;4.93;;;4.40;;
15899;SDS011;8048;50.644;6.184;2022-07-23T15:17:12;4.07;;;3.87;;
15899;SDS011;8048;50.644;6.184;2022-07-23T15:19:38;3.90;;;3.70;;
15899;SDS011;8048;50.644;6.184;2022-07-23T15:22:03;3.80;;;3.60;;
15899;SDS011;8048;50.644;6.184;2022-07-23T15:24:29;4.90;;;4.60;;
15899;SDS011;8048;50.644;6.184;2022-07-23T15:26:55;4.23;;;4.03;;
15899;SDS011;8048;50.644;6.184;2022-07-23T15:29:21;4.00;;;3.70;;
15899;SDS011;8048;50.644;6.184;2022-07-23T15:31:48;4.00;;;3.80;;
15899;SDS011;8048;50.644;6.184;2022-07-23T15:34:14;4.40;;;4.10;;
15899;SDS011;8048;50.644;6.184;2022-07-23T15:36:39;4.23;;;3.93;;
15899;SDS011;8048;50.644;6.184;2022-07-23T15:39:06;4.40;;;4.17;;
15899;SDS011;8048;50.644;6.184;2022-07-23T15:41:31;3.80;;;3.50;;
15899;SDS011;8048;50.644;6.184;2022-07-23T15:43:57;4.67;;;4.30;;
15899;SDS011;8048;50.644;6.184;2022-07-23T15:46:23;4.17;;;3.97;;
15899;SDS011;8048;50.644;6.184;2022-07-23T15:48:49;4.87;;;4.47;;
15899;SDS011;8048;50.644;6.184;2022-07-23T15:51:16;3.97;;;3.77;;
15899;SDS011;8048;50.644;6.184;2022-07-23T15:53:42;3.60;;;3.40;;
15899;SDS011;8048;50.644;6.184;2022-07-23T15:56:08;3.67;;;3.37;;
15899;SDS011;8048;50.644;6.184;2022-07-23T15:58:34;4.13;;;3.93;;